sensor_id;sensor_type;location;lat;lon;timestamp;temperature;humidity
59975;DHT22;62136;-35.664;-63.766;2023-02-08T00:00:52;32.80;41.30
59975;DHT22;62136;-35.664;-63.766;2023-02-08T00:03:19;32.80;41.50
59975;DHT22;62136;-35.664;-63.766;2023-02-08T00:05:47;32.70;41.50
59975;DHT22;62136;-35.664;-63.766;2023-02-08T00:08:20;32.70;41.50
59975;DHT22;62136;-35.664;-63.766;2023-02-08T00:10:47;32.70;41.60
59975;DHT22;62136;-35.664;-63.766;2023-02-08T00:13:15;32.70;41.50
59975;DHT22;62136;-35.664;-63.766;2023-02-08T00:15:44;32.70;41.50
59975;DHT22;62136;-35.664;-63.766;2023-02-08T00:18:12;32.70;41.60
59975;DHT22;62136;-35.664;-63.766;2023-02-08T00:20:42;32.70;41.70
59975;DHT22;62136;-35.664;-63.766;2023-02-08T00:23:11;32.70;41.70
59975;DHT22;62136;-35.664;-63.766;2023-02-08T00:25:38;32.70;42.10
59975;DHT22;62136;-35.664;-63.766;2023-02-08T00:28:08;32.70;41.70
59975;DHT22;62136;-35.664;-63.766;2023-02-08T00:30:37;32.60;41.60
59975;DHT22;62136;-35.664;-63.766;2023-02-08T00:33:05;32.60;41.30
59975;DHT22;62136;-35.664;-63.766;2023-02-08T00:35:32;32.60;41.70
59975;DHT22;62136;-35.664;-63.766;2023-02-08T00:37:59;32.50;41.70
59975;DHT22;62136;-35.664;-63.766;2023-02-08T00:40:27;32.60;41.70
59975;DHT22;62136;-35.664;-63.766;2023-02-08T00:42:54;32.60;41.80
59975;DHT22;62136;-35.664;-63.766;2023-02-08T00:45:21;32.60;41.60
59975;DHT22;62136;-35.664;-63.766;2023-02-08T00:47:48;32.60;41.70
59975;DHT22;62136;-35.664;-63.766;2023-02-08T00:50:15;32.60;41.60
59975;DHT22;62136;-35.664;-63.766;2023-02-08T00:52:43;32.50;41.60
59975;DHT22;62136;-35.664;-63.766;2023-02-08T00:55:10;32.50;41.60
59975;DHT22;62136;-35.664;-63.766;2023-02-08T00:57:37;32.50;41.60
59975;DHT22;62136;-35.664;-63.766;2023-02-08T01:00:05;32.50;41.80
59975;DHT22;62136;-35.664;-63.766;2023-02-08T01:02:32;32.50;41.70
59975;DHT22;62136;-35.664;-63.766;2023-02-08T01:04:59;32.50;41.80
59975;DHT22;62136;-35.664;-63.766;2023-02-08T01:07:26;32.50;41.80
59975;DHT22;62136;-35.664;-63.766;2023-02-08T01:09:53;32.50;41.80
59975;DHT22;62136;-35.664;-63.766;2023-02-08T01:12:20;32.40;41.80
59975;DHT22;62136;-35.664;-63.766;2023-02-08T01:14:48;32.50;41.80
59975;DHT22;62136;-35.664;-63.766;2023-02-08T01:17:15;32.40;41.90
59975;DHT22;62136;-35.664;-63.766;2023-02-08T01:19:42;32.40;41.80
59975;DHT22;62136;-35.664;-63.766;2023-02-08T01:22:09;32.40;41.90
59975;DHT22;62136;-35.664;-63.766;2023-02-08T01:24:36;32.40;41.90
59975;DHT22;62136;-35.664;-63.766;2023-02-08T01:27:03;32.40;41.90
59975;DHT22;62136;-35.664;-63.766;2023-02-08T01:29:39;32.30;41.90
59975;DHT22;62136;-35.664;-63.766;2023-02-08T01:32:06;32.30;41.90
59975;DHT22;62136;-35.664;-63.766;2023-02-08T01:34:33;32.30;41.80
59975;DHT22;62136;-35.664;-63.766;2023-02-08T01:37:00;32.30;41.90
59975;DHT22;62136;-35.664;-63.766;2023-02-08T01:39:27;32.30;41.80
59975;DHT22;62136;-35.664;-63.766;2023-02-08T01:41:54;32.30;41.90
59975;DHT22;62136;-35.664;-63.766;2023-02-08T01:47:35;32.30;41.80
59975;DHT22;62136;-35.664;-63.766;2023-02-08T01:50:02;32.30;42.00
59975;DHT22;62136;-35.664;-63.766;2023-02-08T01:52:29;32.30;41.90
59975;DHT22;62136;-35.664;-63.766;2023-02-08T01:55:16;32.20;41.90
59975;DHT22;62136;-35.664;-63.766;2023-02-08T01:57:45;32.20;42.00
59975;DHT22;62136;-35.664;-63.766;2023-02-08T02:00:16;32.20;41.90
59975;DHT22;62136;-35.664;-63.766;2023-02-08T02:02:46;32.20;42.00
59975;DHT22;62136;-35.664;-63.766;2023-02-08T02:05:17;32.20;42.10
59975;DHT22;62136;-35.664;-63.766;2023-02-08T02:07:44;32.20;42.10
59975;DHT22;62136;-35.664;-63.766;2023-02-08T02:10:18;32.20;42.00
59975;DHT22;62136;-35.664;-63.766;2023-02-08T02:12:53;32.20;42.00
59975;DHT22;62136;-35.664;-63.766;2023-02-08T02:15:21;32.20;42.10
59975;DHT22;62136;-35.664;-63.766;2023-02-08T02:17:48;32.20;42.00
59975;DHT22;62136;-35.664;-63.766;2023-02-08T02:23:27;32.10;42.00
59975;DHT22;62136;-35.664;-63.766;2023-02-08T02:29:25;32.00;42.00
59975;DHT22;62136;-35.664;-63.766;2023-02-08T02:40:49;32.00;42.40
59975;DHT22;62136;-35.664;-63.766;2023-02-08T02:43:45;31.90;42.50
59975;DHT22;62136;-35.664;-63.766;2023-02-08T02:46:26;31.90;42.50
59975;DHT22;62136;-35.664;-63.766;2023-02-08T02:49:06;31.90;42.50
59975;DHT22;62136;-35.664;-63.766;2023-02-08T02:51:39;31.90;42.60
59975;DHT22;62136;-35.664;-63.766;2023-02-08T02:56:54;31.90;42.70
59975;DHT22;62136;-35.664;-63.766;2023-02-08T02:59:28;31.90;42.70
59975;DHT22;62136;-35.664;-63.766;2023-02-08T03:02:00;31.90;42.80
59975;DHT22;62136;-35.664;-63.766;2023-02-08T03:15:34;31.80;42.80
59975;DHT22;62136;-35.664;-63.766;2023-02-08T03:21:34;31.70;42.80
59975;DHT22;62136;-35.664;-63.766;2023-02-08T03:24:19;31.70;43.30
59975;DHT22;62136;-35.664;-63.766;2023-02-08T03:26:59;31.70;42.90
59975;DHT22;62136;-35.664;-63.766;2023-02-08T03:37:27;31.70;43.00
59975;DHT22;62136;-35.664;-63.766;2023-02-08T03:40:00;31.60;43.00
59975;DHT22;62136;-35.664;-63.766;2023-02-08T03:42:30;31.50;43.00
59975;DHT22;62136;-35.664;-63.766;2023-02-08T03:45:07;31.50;43.10
59975;DHT22;62136;-35.664;-63.766;2023-02-08T03:47:38;31.50;43.20
59975;DHT22;62136;-35.664;-63.766;2023-02-08T03:50:08;31.50;43.10
59975;DHT22;62136;-35.664;-63.766;2023-02-08T03:52:36;31.50;43.10
59975;DHT22;62136;-35.664;-63.766;2023-02-08T03:55:10;31.50;43.20
59975;DHT22;62136;-35.664;-63.766;2023-02-08T03:58:08;31.50;43.20
59975;DHT22;62136;-35.664;-63.766;2023-02-08T04:00:41;31.50;43.30
59975;DHT22;62136;-35.664;-63.766;2023-02-08T04:03:12;31.40;43.30
59975;DHT22;62136;-35.664;-63.766;2023-02-08T04:05:42;31.50;43.40
59975;DHT22;62136;-35.664;-63.766;2023-02-08T04:08:09;31.40;43.30
59975;DHT22;62136;-35.664;-63.766;2023-02-08T04:10:36;31.40;43.40
59975;DHT22;62136;-35.664;-63.766;2023-02-08T04:13:03;31.40;43.50
59975;DHT22;62136;-35.664;-63.766;2023-02-08T04:15:31;31.40;43.50
59975;DHT22;62136;-35.664;-63.766;2023-02-08T04:17:58;31.30;43.40
59975;DHT22;62136;-35.664;-63.766;2023-02-08T04:20:25;31.30;43.40
59975;DHT22;62136;-35.664;-63.766;2023-02-08T04:22:52;31.30;43.40
59975;DHT22;62136;-35.664;-63.766;2023-02-08T04:25:19;31.30;43.50
59975;DHT22;62136;-35.664;-63.766;2023-02-08T04:27:49;31.30;43.40
59975;DHT22;62136;-35.664;-63.766;2023-02-08T04:30:16;31.30;43.50
59975;DHT22;62136;-35.664;-63.766;2023-02-08T04:32:43;31.20;43.40
59975;DHT22;62136;-35.664;-63.766;2023-02-08T04:35:10;31.30;43.50
59975;DHT22;62136;-35.664;-63.766;2023-02-08T04:37:37;31.20;43.40
59975;DHT22;62136;-35.664;-63.766;2023-02-08T04:40:04;31.20;43.50
59975;DHT22;62136;-35.664;-63.766;2023-02-08T04:42:31;31.20;43.50
59975;DHT22;62136;-35.664;-63.766;2023-02-08T04:44:58;31.20;43.40
59975;DHT22;62136;-35.664;-63.766;2023-02-08T04:47:25;31.20;43.60
59975;DHT22;62136;-35.664;-63.766;2023-02-08T04:49:52;31.20;43.60
59975;DHT22;62136;-35.664;-63.766;2023-02-08T04:52:19;31.10;43.60
59975;DHT22;62136;-35.664;-63.766;2023-02-08T04:54:46;31.20;43.70
59975;DHT22;62136;-35.664;-63.766;2023-02-08T04:57:14;31.10;43.60
59975;DHT22;62136;-35.664;-63.766;2023-02-08T04:59:41;31.10;43.60
59975;DHT22;62136;-35.664;-63.766;2023-02-08T05:02:08;31.10;43.60
59975;DHT22;62136;-35.664;-63.766;2023-02-08T05:04:35;31.10;43.60
59975;DHT22;62136;-35.664;-63.766;2023-02-08T05:07:02;31.10;43.60
59975;DHT22;62136;-35.664;-63.766;2023-02-08T05:09:29;31.10;43.70
59975;DHT22;62136;-35.664;-63.766;2023-02-08T05:11:56;31.00;43.60
59975;DHT22;62136;-35.664;-63.766;2023-02-08T05:14:23;31.00;43.60
59975;DHT22;62136;-35.664;-63.766;2023-02-08T05:16:50;31.00;43.40
59975;DHT22;62136;-35.664;-63.766;2023-02-08T05:19:17;31.00;43.60
59975;DHT22;62136;-35.664;-63.766;2023-02-08T05:21:44;31.00;43.60
59975;DHT22;62136;-35.664;-63.766;2023-02-08T05:24:11;31.00;43.60
59975;DHT22;62136;-35.664;-63.766;2023-02-08T05:26:39;31.00;43.60
59975;DHT22;62136;-35.664;-63.766;2023-02-08T05:29:06;30.90;43.70
59975;DHT22;62136;-35.664;-63.766;2023-02-08T05:31:33;30.90;43.60
59975;DHT22;62136;-35.664;-63.766;2023-02-08T05:34:00;30.90;43.60
59975;DHT22;62136;-35.664;-63.766;2023-02-08T05:36:27;30.90;43.50
59975;DHT22;62136;-35.664;-63.766;2023-02-08T05:38:54;30.90;43.50
59975;DHT22;62136;-35.664;-63.766;2023-02-08T05:41:21;30.90;43.80
59975;DHT22;62136;-35.664;-63.766;2023-02-08T05:43:48;30.90;43.60
59975;DHT22;62136;-35.664;-63.766;2023-02-08T05:46:18;30.90;43.40
59975;DHT22;62136;-35.664;-63.766;2023-02-08T05:48:45;30.90;43.40
59975;DHT22;62136;-35.664;-63.766;2023-02-08T05:51:13;30.90;43.40
59975;DHT22;62136;-35.664;-63.766;2023-02-08T05:53:40;30.90;43.40
59975;DHT22;62136;-35.664;-63.766;2023-02-08T05:56:08;30.90;43.50
59975;DHT22;62136;-35.664;-63.766;2023-02-08T05:58:35;30.90;43.40
59975;DHT22;62136;-35.664;-63.766;2023-02-08T06:01:08;30.90;43.50
59975;DHT22;62136;-35.664;-63.766;2023-02-08T06:03:36;30.80;43.40
59975;DHT22;62136;-35.664;-63.766;2023-02-08T06:06:04;30.80;43.40
59975;DHT22;62136;-35.664;-63.766;2023-02-08T06:08:31;30.80;43.50
59975;DHT22;62136;-35.664;-63.766;2023-02-08T06:10:59;30.80;43.40
59975;DHT22;62136;-35.664;-63.766;2023-02-08T06:13:26;30.70;43.30
59975;DHT22;62136;-35.664;-63.766;2023-02-08T06:15:54;30.70;43.60
59975;DHT22;62136;-35.664;-63.766;2023-02-08T06:18:22;30.70;43.40
59975;DHT22;62136;-35.664;-63.766;2023-02-08T06:20:52;30.70;43.40
59975;DHT22;62136;-35.664;-63.766;2023-02-08T06:23:20;30.70;43.40
59975;DHT22;62136;-35.664;-63.766;2023-02-08T06:25:47;30.70;43.50
59975;DHT22;62136;-35.664;-63.766;2023-02-08T06:28:14;30.60;43.30
59975;DHT22;62136;-35.664;-63.766;2023-02-08T06:30:41;30.60;43.20
59975;DHT22;62136;-35.664;-63.766;2023-02-08T06:33:08;30.60;43.20
59975;DHT22;62136;-35.664;-63.766;2023-02-08T06:35:35;30.60;43.30
59975;DHT22;62136;-35.664;-63.766;2023-02-08T06:38:02;30.60;43.30
59975;DHT22;62136;-35.664;-63.766;2023-02-08T06:40:29;30.50;43.20
59975;DHT22;62136;-35.664;-63.766;2023-02-08T06:42:56;30.60;43.20
59975;DHT22;62136;-35.664;-63.766;2023-02-08T06:45:23;30.60;43.20
59975;DHT22;62136;-35.664;-63.766;2023-02-08T06:47:50;30.50;43.10
59975;DHT22;62136;-35.664;-63.766;2023-02-08T06:50:18;30.60;43.20
59975;DHT22;62136;-35.664;-63.766;2023-02-08T06:52:45;30.50;43.10
59975;DHT22;62136;-35.664;-63.766;2023-02-08T06:55:13;30.50;43.10
59975;DHT22;62136;-35.664;-63.766;2023-02-08T06:57:40;30.50;43.10
59975;DHT22;62136;-35.664;-63.766;2023-02-08T07:00:07;30.50;43.10
59975;DHT22;62136;-35.664;-63.766;2023-02-08T07:02:35;30.50;43.10
59975;DHT22;62136;-35.664;-63.766;2023-02-08T07:05:02;30.50;43.10
59975;DHT22;62136;-35.664;-63.766;2023-02-08T07:07:29;30.50;43.10
59975;DHT22;62136;-35.664;-63.766;2023-02-08T07:09:56;30.40;43.00
59975;DHT22;62136;-35.664;-63.766;2023-02-08T07:12:23;30.40;43.00
59975;DHT22;62136;-35.664;-63.766;2023-02-08T07:14:50;30.40;43.00
59975;DHT22;62136;-35.664;-63.766;2023-02-08T07:17:17;30.40;43.00
59975;DHT22;62136;-35.664;-63.766;2023-02-08T07:19:44;30.30;42.90
59975;DHT22;62136;-35.664;-63.766;2023-02-08T07:22:11;30.40;43.00
59975;DHT22;62136;-35.664;-63.766;2023-02-08T07:24:40;30.30;43.00
59975;DHT22;62136;-35.664;-63.766;2023-02-08T07:27:08;30.30;43.00
59975;DHT22;62136;-35.664;-63.766;2023-02-08T07:29:36;30.30;43.10
59975;DHT22;62136;-35.664;-63.766;2023-02-08T07:32:04;30.30;43.10
59975;DHT22;62136;-35.664;-63.766;2023-02-08T07:34:34;30.30;43.10
59975;DHT22;62136;-35.664;-63.766;2023-02-08T07:37:01;30.30;43.00
59975;DHT22;62136;-35.664;-63.766;2023-02-08T07:39:29;30.30;43.10
59975;DHT22;62136;-35.664;-63.766;2023-02-08T07:41:57;30.20;43.00
59975;DHT22;62136;-35.664;-63.766;2023-02-08T07:44:24;30.20;43.00
59975;DHT22;62136;-35.664;-63.766;2023-02-08T07:46:51;30.20;43.00
59975;DHT22;62136;-35.664;-63.766;2023-02-08T07:49:18;30.20;43.00
59975;DHT22;62136;-35.664;-63.766;2023-02-08T07:51:45;30.20;43.10
59975;DHT22;62136;-35.664;-63.766;2023-02-08T07:54:12;30.20;43.10
59975;DHT22;62136;-35.664;-63.766;2023-02-08T07:56:39;30.20;43.00
59975;DHT22;62136;-35.664;-63.766;2023-02-08T07:59:06;30.10;43.00
59975;DHT22;62136;-35.664;-63.766;2023-02-08T08:01:34;30.10;43.00
59975;DHT22;62136;-35.664;-63.766;2023-02-08T08:04:01;30.10;43.00
59975;DHT22;62136;-35.664;-63.766;2023-02-08T08:06:28;30.10;43.00
59975;DHT22;62136;-35.664;-63.766;2023-02-08T08:08:55;30.10;43.00
59975;DHT22;62136;-35.664;-63.766;2023-02-08T08:11:22;30.10;43.00
59975;DHT22;62136;-35.664;-63.766;2023-02-08T08:13:49;30.00;43.00
59975;DHT22;62136;-35.664;-63.766;2023-02-08T08:16:17;30.00;43.00
59975;DHT22;62136;-35.664;-63.766;2023-02-08T08:18:45;30.00;43.10
59975;DHT22;62136;-35.664;-63.766;2023-02-08T08:21:12;30.00;43.10
59975;DHT22;62136;-35.664;-63.766;2023-02-08T08:23:41;30.00;43.10
59975;DHT22;62136;-35.664;-63.766;2023-02-08T08:26:15;30.00;43.10
59975;DHT22;62136;-35.664;-63.766;2023-02-08T08:28:43;30.00;43.10
59975;DHT22;62136;-35.664;-63.766;2023-02-08T08:31:17;30.00;43.10
59975;DHT22;62136;-35.664;-63.766;2023-02-08T08:33:45;30.00;43.10
59975;DHT22;62136;-35.664;-63.766;2023-02-08T08:36:12;30.00;43.20
59975;DHT22;62136;-35.664;-63.766;2023-02-08T08:38:39;29.90;43.00
59975;DHT22;62136;-35.664;-63.766;2023-02-08T08:41:09;29.90;43.10
59975;DHT22;62136;-35.664;-63.766;2023-02-08T08:43:36;29.90;43.10
59975;DHT22;62136;-35.664;-63.766;2023-02-08T08:46:05;29.90;43.10
59975;DHT22;62136;-35.664;-63.766;2023-02-08T08:48:33;29.90;43.10
59975;DHT22;62136;-35.664;-63.766;2023-02-08T08:51:00;29.90;43.10
59975;DHT22;62136;-35.664;-63.766;2023-02-08T08:53:27;29.90;43.10
59975;DHT22;62136;-35.664;-63.766;2023-02-08T08:55:55;29.90;43.10
59975;DHT22;62136;-35.664;-63.766;2023-02-08T08:58:23;29.80;43.10
59975;DHT22;62136;-35.664;-63.766;2023-02-08T09:00:50;29.80;43.20
59975;DHT22;62136;-35.664;-63.766;2023-02-08T09:03:17;29.90;43.20
59975;DHT22;62136;-35.664;-63.766;2023-02-08T09:05:45;29.80;43.10
59975;DHT22;62136;-35.664;-63.766;2023-02-08T09:08:12;29.80;43.20
59975;DHT22;62136;-35.664;-63.766;2023-02-08T09:10:39;29.80;43.30
59975;DHT22;62136;-35.664;-63.766;2023-02-08T09:13:07;29.80;43.30
59975;DHT22;62136;-35.664;-63.766;2023-02-08T09:15:37;29.80;43.30
59975;DHT22;62136;-35.664;-63.766;2023-02-08T09:18:04;29.70;43.20
59975;DHT22;62136;-35.664;-63.766;2023-02-08T09:20:31;29.70;43.30
59975;DHT22;62136;-35.664;-63.766;2023-02-08T09:22:58;29.70;43.20
59975;DHT22;62136;-35.664;-63.766;2023-02-08T09:25:26;29.80;43.30
59975;DHT22;62136;-35.664;-63.766;2023-02-08T09:27:53;29.70;43.30
59975;DHT22;62136;-35.664;-63.766;2023-02-08T09:30:19;29.70;43.30
59975;DHT22;62136;-35.664;-63.766;2023-02-08T09:32:46;29.70;43.30
59975;DHT22;62136;-35.664;-63.766;2023-02-08T09:35:13;29.60;43.30
59975;DHT22;62136;-35.664;-63.766;2023-02-08T09:37:41;29.60;43.40
59975;DHT22;62136;-35.664;-63.766;2023-02-08T09:40:24;29.60;43.40
59975;DHT22;62136;-35.664;-63.766;2023-02-08T09:45:59;29.60;43.40
59975;DHT22;62136;-35.664;-63.766;2023-02-08T09:48:37;29.60;43.40
59975;DHT22;62136;-35.664;-63.766;2023-02-08T09:51:36;29.60;43.40
59975;DHT22;62136;-35.664;-63.766;2023-02-08T09:54:18;29.60;43.50
59975;DHT22;62136;-35.664;-63.766;2023-02-08T09:56:47;29.50;43.50
59975;DHT22;62136;-35.664;-63.766;2023-02-08T09:59:24;29.50;43.50
59975;DHT22;62136;-35.664;-63.766;2023-02-08T10:02:01;29.50;43.60
59975;DHT22;62136;-35.664;-63.766;2023-02-08T10:07:16;29.50;43.60
59975;DHT22;62136;-35.664;-63.766;2023-02-08T10:09:43;29.50;43.50
59975;DHT22;62136;-35.664;-63.766;2023-02-08T10:12:17;29.50;43.70
59975;DHT22;62136;-35.664;-63.766;2023-02-08T10:23:29;29.30;43.70
59975;DHT22;62136;-35.664;-63.766;2023-02-08T10:36:59;29.10;43.90
59975;DHT22;62136;-35.664;-63.766;2023-02-08T10:39:31;29.00;44.00
59975;DHT22;62136;-35.664;-63.766;2023-02-08T10:41:59;29.00;43.90
59975;DHT22;62136;-35.664;-63.766;2023-02-08T10:50:06;29.00;43.90
59975;DHT22;62136;-35.664;-63.766;2023-02-08T10:52:38;29.10;44.00
59975;DHT22;62136;-35.664;-63.766;2023-02-08T10:55:16;29.20;43.70
59975;DHT22;62136;-35.664;-63.766;2023-02-08T10:57:44;29.50;43.30
59975;DHT22;62136;-35.664;-63.766;2023-02-08T11:00:40;29.70;42.90
59975;DHT22;62136;-35.664;-63.766;2023-02-08T11:03:33;29.80;42.80
59975;DHT22;62136;-35.664;-63.766;2023-02-08T11:06:03;29.60;42.90
59975;DHT22;62136;-35.664;-63.766;2023-02-08T11:08:31;29.50;43.10
59975;DHT22;62136;-35.664;-63.766;2023-02-08T11:11:05;29.30;43.40
59975;DHT22;62136;-35.664;-63.766;2023-02-08T11:13:40;29.10;43.50
59975;DHT22;62136;-35.664;-63.766;2023-02-08T11:16:28;28.80;43.80
59975;DHT22;62136;-35.664;-63.766;2023-02-08T11:18:59;28.70;44.10
59975;DHT22;62136;-35.664;-63.766;2023-02-08T11:21:35;28.50;44.40
59975;DHT22;62136;-35.664;-63.766;2023-02-08T11:24:34;28.50;44.70
59975;DHT22;62136;-35.664;-63.766;2023-02-08T11:30:22;28.50;44.50
59975;DHT22;62136;-35.664;-63.766;2023-02-08T11:33:18;28.70;44.50
59975;DHT22;62136;-35.664;-63.766;2023-02-08T11:36:03;28.70;44.60
59975;DHT22;62136;-35.664;-63.766;2023-02-08T11:38:33;28.80;44.50
59975;DHT22;62136;-35.664;-63.766;2023-02-08T11:41:04;28.80;44.40
59975;DHT22;62136;-35.664;-63.766;2023-02-08T11:43:41;28.80;44.40
59975;DHT22;62136;-35.664;-63.766;2023-02-08T11:46:10;28.90;44.50
59975;DHT22;62136;-35.664;-63.766;2023-02-08T11:48:44;29.00;44.40
59975;DHT22;62136;-35.664;-63.766;2023-02-08T11:53:51;29.10;44.40
59975;DHT22;62136;-35.664;-63.766;2023-02-08T11:59:19;29.10;44.30
59975;DHT22;62136;-35.664;-63.766;2023-02-08T12:01:47;29.20;44.30
59975;DHT22;62136;-35.664;-63.766;2023-02-08T12:04:15;29.20;44.30
59975;DHT22;62136;-35.664;-63.766;2023-02-08T12:07:13;29.30;44.30
59975;DHT22;62136;-35.664;-63.766;2023-02-08T12:10:13;29.30;44.50
59975;DHT22;62136;-35.664;-63.766;2023-02-08T12:29:40;29.50;44.70
59975;DHT22;62136;-35.664;-63.766;2023-02-08T12:48:08;29.00;42.30
59975;DHT22;62136;-35.664;-63.766;2023-02-08T12:50:50;28.90;42.20
59975;DHT22;62136;-35.664;-63.766;2023-02-08T12:56:44;28.80;41.70
59975;DHT22;62136;-35.664;-63.766;2023-02-08T12:59:29;28.70;41.30
59975;DHT22;62136;-35.664;-63.766;2023-02-08T13:02:01;28.60;40.70
59975;DHT22;62136;-35.664;-63.766;2023-02-08T13:04:39;28.60;41.00
59975;DHT22;62136;-35.664;-63.766;2023-02-08T13:07:29;28.50;40.40
59975;DHT22;62136;-35.664;-63.766;2023-02-08T13:10:28;28.50;40.30
59975;DHT22;62136;-35.664;-63.766;2023-02-08T13:13:11;28.50;40.00
59975;DHT22;62136;-35.664;-63.766;2023-02-08T13:15:44;28.40;40.00
59975;DHT22;62136;-35.664;-63.766;2023-02-08T13:18:26;28.40;39.90
59975;DHT22;62136;-35.664;-63.766;2023-02-08T13:21:21;28.40;39.50
59975;DHT22;62136;-35.664;-63.766;2023-02-08T13:23:48;28.40;39.40
59975;DHT22;62136;-35.664;-63.766;2023-02-08T13:28:51;28.30;39.10
59975;DHT22;62136;-35.664;-63.766;2023-02-08T13:36:48;28.30;38.80
59975;DHT22;62136;-35.664;-63.766;2023-02-08T13:39:36;28.30;38.60
59975;DHT22;62136;-35.664;-63.766;2023-02-08T13:42:07;28.30;38.30
59975;DHT22;62136;-35.664;-63.766;2023-02-08T13:44:49;28.30;38.40
59975;DHT22;62136;-35.664;-63.766;2023-02-08T13:50:01;28.30;38.10
59975;DHT22;62136;-35.664;-63.766;2023-02-08T13:58:24;28.20;37.60
59975;DHT22;62136;-35.664;-63.766;2023-02-08T14:03:32;28.20;37.80
59975;DHT22;62136;-35.664;-63.766;2023-02-08T14:06:21;28.20;38.10
59975;DHT22;62136;-35.664;-63.766;2023-02-08T14:09:07;28.20;37.40
59975;DHT22;62136;-35.664;-63.766;2023-02-08T14:11:55;28.20;37.40
59975;DHT22;62136;-35.664;-63.766;2023-02-08T14:14:33;28.20;37.10
59975;DHT22;62136;-35.664;-63.766;2023-02-08T14:17:26;28.20;36.90
59975;DHT22;62136;-35.664;-63.766;2023-02-08T14:20:03;28.20;36.90
59975;DHT22;62136;-35.664;-63.766;2023-02-08T14:22:39;28.10;36.90
59975;DHT22;62136;-35.664;-63.766;2023-02-08T14:25:20;28.20;37.10
59975;DHT22;62136;-35.664;-63.766;2023-02-08T14:30:29;28.10;36.30
59975;DHT22;62136;-35.664;-63.766;2023-02-08T14:33:27;28.20;36.80
59975;DHT22;62136;-35.664;-63.766;2023-02-08T14:36:01;28.20;36.70
59975;DHT22;62136;-35.664;-63.766;2023-02-08T14:41:53;28.20;36.50
59975;DHT22;62136;-35.664;-63.766;2023-02-08T14:50:40;28.20;36.40
59975;DHT22;62136;-35.664;-63.766;2023-02-08T14:58:18;28.20;36.10
59975;DHT22;62136;-35.664;-63.766;2023-02-08T15:00:50;28.20;36.30
59975;DHT22;62136;-35.664;-63.766;2023-02-08T15:03:18;28.40;39.20
59975;DHT22;62136;-35.664;-63.766;2023-02-08T15:06:03;28.60;38.40
59975;DHT22;62136;-35.664;-63.766;2023-02-08T15:08:32;28.80;38.20
59975;DHT22;62136;-35.664;-63.766;2023-02-08T15:10:59;28.90;38.00
59975;DHT22;62136;-35.664;-63.766;2023-02-08T15:13:26;29.10;38.10
59975;DHT22;62136;-35.664;-63.766;2023-02-08T15:15:56;29.20;38.60
59975;DHT22;62136;-35.664;-63.766;2023-02-08T15:18:32;29.40;37.70
59975;DHT22;62136;-35.664;-63.766;2023-02-08T15:21:12;29.40;37.90
59975;DHT22;62136;-35.664;-63.766;2023-02-08T15:23:40;29.60;37.30
59975;DHT22;62136;-35.664;-63.766;2023-02-08T15:26:22;29.70;37.30
59975;DHT22;62136;-35.664;-63.766;2023-02-08T15:28:49;29.80;37.10
59975;DHT22;62136;-35.664;-63.766;2023-02-08T15:31:19;29.90;37.30
59975;DHT22;62136;-35.664;-63.766;2023-02-08T15:33:47;30.00;37.40
59975;DHT22;62136;-35.664;-63.766;2023-02-08T15:38:45;30.10;37.40
59975;DHT22;62136;-35.664;-63.766;2023-02-08T15:41:15;30.20;37.40
59975;DHT22;62136;-35.664;-63.766;2023-02-08T15:43:49;30.30;37.60
59975;DHT22;62136;-35.664;-63.766;2023-02-08T15:46:22;30.30;37.70
59975;DHT22;62136;-35.664;-63.766;2023-02-08T15:48:50;30.40;37.70
59975;DHT22;62136;-35.664;-63.766;2023-02-08T15:51:18;30.50;37.80
59975;DHT22;62136;-35.664;-63.766;2023-02-08T15:53:50;30.50;37.80
59975;DHT22;62136;-35.664;-63.766;2023-02-08T15:56:22;30.50;38.10
59975;DHT22;62136;-35.664;-63.766;2023-02-08T15:58:55;30.60;37.70
59975;DHT22;62136;-35.664;-63.766;2023-02-08T16:01:23;30.60;37.80
59975;DHT22;62136;-35.664;-63.766;2023-02-08T16:03:58;30.70;37.70
59975;DHT22;62136;-35.664;-63.766;2023-02-08T16:06:28;30.70;37.70
59975;DHT22;62136;-35.664;-63.766;2023-02-08T16:08:59;30.80;37.90
59975;DHT22;62136;-35.664;-63.766;2023-02-08T16:11:33;30.80;37.90
59975;DHT22;62136;-35.664;-63.766;2023-02-08T16:14:03;30.90;37.80
59975;DHT22;62136;-35.664;-63.766;2023-02-08T16:16:47;30.90;37.90
59975;DHT22;62136;-35.664;-63.766;2023-02-08T16:21:55;31.00;37.90
59975;DHT22;62136;-35.664;-63.766;2023-02-08T16:24:27;31.00;38.10
59975;DHT22;62136;-35.664;-63.766;2023-02-08T16:27:26;31.00;38.00
59975;DHT22;62136;-35.664;-63.766;2023-02-08T16:29:54;31.10;38.00
59975;DHT22;62136;-35.664;-63.766;2023-02-08T16:34:52;31.20;38.10
59975;DHT22;62136;-35.664;-63.766;2023-02-08T16:37:29;31.20;38.20
59975;DHT22;62136;-35.664;-63.766;2023-02-08T16:39:58;31.20;38.20
59975;DHT22;62136;-35.664;-63.766;2023-02-08T16:45:17;31.30;38.10
59975;DHT22;62136;-35.664;-63.766;2023-02-08T16:47:48;31.30;38.10
59975;DHT22;62136;-35.664;-63.766;2023-02-08T16:50:21;31.40;38.10
59975;DHT22;62136;-35.664;-63.766;2023-02-08T16:53:00;31.40;38.10
59975;DHT22;62136;-35.664;-63.766;2023-02-08T16:55:31;31.40;38.20
59975;DHT22;62136;-35.664;-63.766;2023-02-08T16:57:59;31.40;38.20
59975;DHT22;62136;-35.664;-63.766;2023-02-08T17:00:29;31.40;38.10
59975;DHT22;62136;-35.664;-63.766;2023-02-08T17:02:57;31.50;38.30
59975;DHT22;62136;-35.664;-63.766;2023-02-08T17:05:30;31.50;38.30
59975;DHT22;62136;-35.664;-63.766;2023-02-08T17:07:58;31.50;38.30
59975;DHT22;62136;-35.664;-63.766;2023-02-08T17:10:28;31.60;38.40
59975;DHT22;62136;-35.664;-63.766;2023-02-08T17:12:56;31.60;38.30
59975;DHT22;62136;-35.664;-63.766;2023-02-08T17:15:24;31.60;38.20
59975;DHT22;62136;-35.664;-63.766;2023-02-08T17:17:52;31.60;38.40
59975;DHT22;62136;-35.664;-63.766;2023-02-08T17:20:24;31.70;38.30
59975;DHT22;62136;-35.664;-63.766;2023-02-08T17:22:55;31.70;38.40
59975;DHT22;62136;-35.664;-63.766;2023-02-08T17:25:23;31.70;38.30
59975;DHT22;62136;-35.664;-63.766;2023-02-08T17:27:56;31.80;38.40
59975;DHT22;62136;-35.664;-63.766;2023-02-08T17:30:26;31.80;38.40
59975;DHT22;62136;-35.664;-63.766;2023-02-08T17:32:54;31.70;38.40
59975;DHT22;62136;-35.664;-63.766;2023-02-08T17:35:23;31.80;38.50
59975;DHT22;62136;-35.664;-63.766;2023-02-08T17:37:51;31.80;38.60
59975;DHT22;62136;-35.664;-63.766;2023-02-08T17:40:19;31.90;38.50
59975;DHT22;62136;-35.664;-63.766;2023-02-08T17:42:47;31.90;38.70
59975;DHT22;62136;-35.664;-63.766;2023-02-08T17:45:14;31.90;38.70
59975;DHT22;62136;-35.664;-63.766;2023-02-08T17:47:41;31.90;38.60
59975;DHT22;62136;-35.664;-63.766;2023-02-08T17:50:10;32.00;38.60
59975;DHT22;62136;-35.664;-63.766;2023-02-08T17:52:38;32.00;38.60
59975;DHT22;62136;-35.664;-63.766;2023-02-08T17:55:08;32.00;38.50
59975;DHT22;62136;-35.664;-63.766;2023-02-08T17:57:37;32.00;38.10